Time;durP1;ratioP1;P1;durP2;ratioP2;P2;SDS_P1;SDS_P2;PMS_P1;PMS_P2;Temp;Humidity;BMP_temperature;BMP_pressure;BME280_temperature;BME280_humidity;BME280_pressure;Samples;Min_cycle;Max_cycle;Signal;HPM_P1;HPM_P2
2023/04/09 00:01:10;;;;;;;9.23;6.00;;;;;;;6.78;41.61;96286.31;5019107;28;20037;-67
2023/04/09 00:03:35;;;;;;;8.55;5.93;;;;;;;6.71;41.93;96278.09;5019858;28;20127;-68
2023/04/09 00:06:01;;;;;;;9.05;5.82;;;;;;;6.68;41.81;96273.06;5019911;28;20091;-67
2023/04/09 00:08:27;;;;;;;8.55;5.75;;;;;;;6.61;42.02;96279.88;5020277;28;20077;-67
2023/04/09 00:10:53;;;;;;;9.23;6.18;;;;;;;6.56;42.01;96276.81;5019611;28;20091;-67
2023/04/09 00:13:19;;;;;;;8.25;5.90;;;;;;;6.48;42.44;96273.03;5020154;28;20596;-68
2023/04/09 00:15:47;;;;;;;8.32;5.90;;;;;;;6.54;42.09;96276.09;5018609;28;20120;-67
2023/04/09 00:18:13;;;;;;;9.40;6.00;;;;;;;6.53;41.66;96269.97;5019833;28;20049;-67
2023/04/09 00:20:38;;;;;;;9.68;6.65;;;;;;;6.41;41.79;96274.53;5020179;28;20042;-67
2023/04/09 00:23:04;;;;;;;9.60;6.32;;;;;;;6.38;41.95;96264.22;5019739;28;20698;-68
2023/04/09 00:25:29;;;;;;;9.65;6.60;;;;;;;6.40;41.94;96264.91;5019796;28;20032;-67
2023/04/09 00:27:55;;;;;;;8.15;5.65;;;;;;;6.36;42.21;96266.97;5020401;28;20034;-67
2023/04/09 00:30:20;;;;;;;9.00;6.10;;;;;;;6.35;42.30;96261.81;5019807;28;20470;-67
2023/04/09 00:32:46;;;;;;;8.48;6.00;;;;;;;6.28;41.97;96258.03;5020143;28;20461;-68
2023/04/09 00:35:11;;;;;;;8.50;5.68;;;;;;;6.20;42.06;96256.94;5019841;28;20052;-67
2023/04/09 00:37:37;;;;;;;9.27;6.10;;;;;;;6.08;42.54;96256.19;5019821;28;20402;-67
2023/04/09 00:40:03;;;;;;;8.15;5.80;;;;;;;5.96;42.45;96252.78;5019935;28;20449;-67
2023/04/09 00:42:34;;;;;;;9.20;5.72;;;;;;;5.77;42.44;96258.00;5019546;28;20600;-68
2023/04/09 00:45:00;;;;;;;8.13;5.55;;;;;;;5.67;43.14;96253.50;5019330;28;20033;-67
2023/04/09 00:47:27;;;;;;;9.63;6.07;;;;;;;5.51;43.36;96253.16;5019704;28;20490;-67
2023/04/09 00:49:53;;;;;;;9.00;5.88;;;;;;;5.32;43.54;96249.41;5021746;28;20052;-67
2023/04/09 00:52:18;;;;;;;8.70;6.38;;;;;;;5.13;43.12;96255.41;5024031;28;20532;-67
2023/04/09 00:54:44;;;;;;;9.57;6.35;;;;;;;4.98;43.51;96250.41;5021891;28;20076;-67
2023/04/09 00:57:11;;;;;;;9.07;6.00;;;;;;;4.84;44.19;96254.19;5021745;28;20029;-67
2023/04/09 00:59:37;;;;;;;9.00;6.15;;;;;;;4.71;44.14;96255.19;5021680;28;20040;-67
2023/04/09 01:02:02;;;;;;;9.57;6.30;;;;;;;4.60;43.73;96249.94;5019154;28;20076;-67
2023/04/09 01:04:27;;;;;;;9.25;6.60;;;;;;;4.44;44.69;96250.34;5023333;28;20552;-68
2023/04/09 01:07:24;;;;;;;10.85;6.57;;;;;;;4.26;45.73;96257.94;5022906;28;20067;-67
2023/04/09 01:09:55;;;;;;;10.65;6.57;;;;;;;4.08;46.54;96253.16;5021069;28;20115;-67
2023/04/09 01:12:33;;;;;;;11.27;6.70;;;;;;;3.92;46.12;96254.34;5023473;28;20428;-67
2023/04/09 01:15:02;;;;;;;11.35;6.90;;;;;;;3.89;46.24;96256.41;5022102;28;20063;-67
2023/04/09 01:17:40;;;;;;;9.93;6.65;;;;;;;3.74;46.61;96261.09;5022899;28;20801;-67
2023/04/09 01:20:27;;;;;;;11.18;6.90;;;;;;;3.66;47.69;96253.75;5006211;28;20117;-67
2023/04/09 01:23:24;;;;;;;10.13;6.90;;;;;;;3.42;48.33;96249.41;5021891;28;20377;-68
2023/04/09 01:26:18;;;;;;;10.93;6.50;;;;;;;3.37;48.50;96256.81;5020759;28;20398;-67
2023/04/09 01:28:44;;;;;;;13.00;7.95;;;;;;;3.31;46.91;96252.84;5019730;28;20056;-67
2023/04/09 01:31:12;;;;;;;12.57;6.85;;;;;;;3.29;48.85;96249.50;5020981;28;20297;-67
2023/04/09 01:33:37;;;;;;;10.50;7.05;;;;;;;3.24;48.42;96255.13;5022585;28;20546;-67
2023/04/09 01:36:03;;;;;;;11.48;6.72;;;;;;;3.18;48.07;96252.94;5022808;28;20137;-67
2023/04/09 01:38:29;;;;;;;11.98;7.25;;;;;;;3.19;48.42;96256.44;5022526;28;20553;-67
2023/04/09 01:40:54;;;;;;;10.93;7.20;;;;;;;3.08;48.15;96255.44;5022539;28;20045;-68
2023/04/09 01:43:20;;;;;;;12.63;7.43;;;;;;;3.00;48.21;96248.09;5020931;28;20094;-68
2023/04/09 01:45:45;;;;;;;10.88;7.05;;;;;;;2.96;49.00;96243.19;5020757;28;20077;-67
2023/04/09 01:48:14;;;;;;;13.25;7.00;;;;;;;2.98;49.79;96254.44;5020689;28;20423;-67
2023/04/09 01:50:39;;;;;;;10.45;6.78;;;;;;;3.01;48.53;96256.84;5004001;28;20083;-67
2023/04/09 01:53:05;;;;;;;10.88;7.80;;;;;;;2.81;48.72;96263.56;5022425;28;20053;-68
2023/04/09 01:55:30;;;;;;;10.10;6.80;;;;;;;2.82;49.01;96258.19;5003746;28;20068;-67
2023/04/09 01:57:55;;;;;;;10.68;6.45;;;;;;;2.94;50.33;96253.84;5022265;28;20105;-67
2023/04/09 02:00:21;;;;;;;12.23;8.30;;;;;;;3.06;49.25;96253.88;5020729;28;20403;-67
2023/04/09 02:03:22;;;;;;;9.77;6.85;;;;;;;3.24;49.21;96259.53;5020192;28;20127;-67
2023/04/09 02:06:30;;;;;;;9.98;7.05;;;;;;;3.29;49.30;96260.03;5020416;28;20091;-67
2023/04/09 02:08:55;;;;;;;10.32;6.90;;;;;;;3.33;48.60;96258.84;5021732;28;20400;-67
2023/04/09 02:11:21;;;;;;;12.10;7.63;;;;;;;3.48;47.01;96258.66;5020122;28;20074;-67
2023/04/09 02:13:46;;;;;;;11.52;7.68;;;;;;;3.60;46.67;96257.72;5003516;28;20077;-67
2023/04/09 02:16:11;;;;;;;12.25;8.07;;;;;;;3.58;48.17;96257.00;5019993;28;20491;-67
2023/04/09 02:18:37;;;;;;;9.95;6.60;;;;;;;3.53;48.24;96261.75;5019905;28;20521;-67
2023/04/09 02:21:04;;;;;;;11.50;7.93;;;;;;;3.60;47.38;96257.72;5020848;28;20057;-67
2023/04/09 02:23:32;;;;;;;10.50;7.20;;;;;;;3.64;48.25;96259.16;5021845;28;20080;-67
2023/04/09 02:25:57;;;;;;;11.45;7.50;;;;;;;3.77;47.47;96260.81;5021243;28;20628;-67
2023/04/09 02:28:22;;;;;;;10.20;6.97;;;;;;;3.84;47.59;96255.94;5022307;28;20061;-68
2023/04/09 02:30:48;;;;;;;11.85;8.07;;;;;;;3.94;46.91;96255.09;5021029;28;20139;-67
2023/04/09 02:33:13;;;;;;;12.25;8.02;;;;;;;4.03;46.72;96250.91;5021207;28;20044;-67
2023/04/09 02:35:39;;;;;;;13.43;9.02;;;;;;;4.04;45.31;96251.72;5021280;28;20112;-67
2023/04/09 02:38:04;;;;;;;13.90;9.10;;;;;;;4.00;46.12;96245.03;5021314;28;20072;-67
2023/04/09 02:40:30;;;;;;;13.73;8.88;;;;;;;3.86;45.50;96246.09;5021005;28;20130;-67
2023/04/09 02:42:55;;;;;;;12.85;8.10;;;;;;;4.02;46.93;96248.38;5021543;28;20066;-67
2023/04/09 02:45:20;;;;;;;13.40;8.35;;;;;;;4.22;46.74;96246.78;5021348;28;20050;-67
2023/04/09 02:47:46;;;;;;;14.43;8.88;;;;;;;4.39;46.00;96245.44;5021370;28;20082;-67
2023/04/09 02:50:11;;;;;;;11.90;7.82;;;;;;;4.47;46.29;96243.97;5021089;28;20069;-67
2023/04/09 02:52:36;;;;;;;15.73;9.25;;;;;;;4.53;45.85;96241.69;5021415;28;20060;-68
2023/04/09 02:55:02;;;;;;;12.30;8.27;;;;;;;4.55;45.29;96241.56;5020674;28;20309;-67
2023/04/09 02:57:27;;;;;;;12.48;8.02;;;;;;;4.61;45.93;96237.59;5021204;28;20041;-67
2023/04/09 02:59:53;;;;;;;10.88;7.18;;;;;;;4.68;45.52;96234.34;5019557;28;20488;-67
2023/04/09 03:02:18;;;;;;;10.88;7.53;;;;;;;4.73;45.22;96241.84;5018857;28;20044;-67
2023/04/09 03:04:44;;;;;;;12.48;8.00;;;;;;;4.70;45.10;96236.84;5020803;28;20088;-67
2023/04/09 03:07:10;;;;;;;12.88;8.50;;;;;;;4.66;45.44;96235.44;5020386;28;20095;-67
2023/04/09 03:09:35;;;;;;;12.95;8.38;;;;;;;4.65;45.60;96226.66;5018948;28;20598;-67
2023/04/09 03:12:01;;;;;;;13.00;8.73;;;;;;;4.68;45.29;96236.13;5020903;28;20025;-67
2023/04/09 03:14:26;;;;;;;12.48;7.80;;;;;;;4.71;45.29;96228.81;5020335;28;20143;-68
2023/04/09 03:16:52;;;;;;;15.00;9.45;;;;;;;4.70;45.29;96226.31;5019848;28;20091;-67
2023/04/09 03:19:17;;;;;;;11.45;7.53;;;;;;;4.70;45.78;96218.38;5019939;28;20060;-67
2023/04/09 03:21:43;;;;;;;14.00;8.90;;;;;;;4.69;45.14;96217.53;5018718;28;20573;-68
2023/04/09 03:24:08;;;;;;;15.82;9.63;;;;;;;4.72;45.10;96213.81;5020584;28;20041;-67
2023/04/09 03:26:36;;;;;;;13.88;8.82;;;;;;;4.71;45.15;96214.78;5019221;28;20045;-67
2023/04/09 03:29:05;;;;;;;12.32;8.15;;;;;;;4.71;44.69;96212.13;5020242;28;20526;-67
2023/04/09 03:31:31;;;;;;;;;;;;;;;4.64;44.74;96211.81;5021081;28;20396;-67
2023/04/09 03:33:56;;;;;;;14.27;8.55;;;;;;;4.62;45.68;96215.53;5019374;28;20010;-67
2023/04/09 03:36:21;;;;;;;11.52;7.93;;;;;;;4.56;45.67;96216.88;5020509;28;20067;-67
2023/04/09 03:38:47;;;;;;;13.70;8.85;;;;;;;4.55;45.19;96215.19;5020021;28;20071;-67
2023/04/09 03:41:12;;;;;;;16.33;9.85;;;;;;;4.57;44.92;96221.19;5020101;28;20037;-67
2023/04/09 03:43:38;;;;;;;13.70;9.00;;;;;;;4.57;45.55;96214.13;5020576;28;20554;-67
2023/04/09 03:46:12;;;;;;;11.98;7.90;;;;;;;4.52;45.37;96218.09;5020323;28;20045;-67
2023/04/09 03:48:38;;;;;;;15.95;11.00;;;;;;;4.35;45.72;96209.72;5020387;28;20041;-67
2023/04/09 03:51:03;;;;;;;13.70;8.68;;;;;;;4.44;45.32;96214.28;5019708;28;20445;-67
2023/04/09 03:53:29;;;;;;;12.52;8.02;;;;;;;4.35;46.12;96209.72;5019696;28;20068;-67
2023/04/09 03:55:54;;;;;;;12.23;8.38;;;;;;;4.30;46.48;96209.28;5020043;28;20379;-67
2023/04/09 03:58:20;;;;;;;12.50;8.10;;;;;;;4.30;46.34;96210.13;5020127;28;20070;-68
2023/04/09 04:00:45;;;;;;;12.77;7.88;;;;;;;4.29;47.09;96212.88;5018978;28;20033;-67
2023/04/09 04:03:11;;;;;;;11.63;7.45;;;;;;;4.26;47.09;96211.34;5017833;28;20262;-67
2023/04/09 04:05:36;;;;;;;14.82;8.25;;;;;;;4.26;46.42;96215.75;5020193;28;20352;-67
2023/04/09 04:08:01;;;;;;;15.45;9.85;;;;;;;4.30;46.54;96206.63;5020242;28;20060;-67
2023/04/09 04:10:27;;;;;;;12.55;8.15;;;;;;;4.33;46.86;96211.66;5017977;28;20753;-67
2023/04/09 04:12:52;;;;;;;16.02;10.32;;;;;;;4.34;46.33;96213.34;5019531;28;20041;-67
2023/04/09 04:15:19;;;;;;;16.83;9.45;;;;;;;4.33;46.69;96214.31;5018718;28;20139;-67
2023/04/09 04:17:44;;;;;;;15.57;9.90;;;;;;;4.40;46.81;96215.50;5019928;28;20118;-68
2023/04/09 04:20:10;;;;;;;18.60;10.90;;;;;;;4.49;45.60;96218.34;5019735;28;20464;-67
2023/04/09 04:22:35;;;;;;;16.77;10.43;;;;;;;4.50;45.90;96215.59;5019422;28;20628;-68
2023/04/09 04:25:02;;;;;;;17.55;11.27;;;;;;;4.47;46.00;96210.56;5022269;28;20058;-67
2023/04/09 04:27:27;;;;;;;18.63;10.55;;;;;;;4.51;46.15;96225.16;5023386;28;20026;-67
2023/04/09 04:29:53;;;;;;;15.43;9.20;;;;;;;4.54;46.53;96218.78;5023426;28;20489;-67
2023/04/09 04:32:18;;;;;;;17.17;10.18;;;;;;;4.53;45.74;96219.75;5023928;28;20128;-67
2023/04/09 04:34:48;;;;;;;13.73;8.93;;;;;;;4.55;45.91;96223.09;5023187;28;20075;-67
2023/04/09 04:37:13;;;;;;;13.02;9.20;;;;;;;4.58;46.58;96225.50;5023255;28;20043;-67
2023/04/09 04:39:38;;;;;;;15.98;9.15;;;;;;;4.65;45.97;96221.41;5023795;28;20037;-67
2023/04/09 04:42:04;;;;;;;13.90;8.98;;;;;;;4.67;46.53;96224.75;5022966;28;20436;-68
2023/04/09 04:44:30;;;;;;;16.10;8.10;;;;;;;4.66;46.27;96228.34;5022740;28;20045;-68
2023/04/09 04:46:55;;;;;;;13.75;9.05;;;;;;;4.73;46.16;96228.66;5023004;28;20064;-67
2023/04/09 04:49:21;;;;;;;13.52;8.82;;;;;;;4.79;45.66;96229.97;5023291;28;20499;-68
2023/04/09 04:51:46;;;;;;;13.57;8.55;;;;;;;4.78;46.17;96215.94;5023829;28;20037;-67
2023/04/09 04:54:11;;;;;;;12.98;8.52;;;;;;;4.81;45.85;96222.78;5022917;28;20540;-67
2023/04/09 04:56:37;;;;;;;14.43;9.00;;;;;;;4.87;45.53;96227.56;5023748;28;20600;-67
2023/04/09 04:59:02;;;;;;;14.15;9.20;;;;;;;4.92;45.81;96225.34;5023423;28;20644;-67
2023/04/09 05:01:28;;;;;;;13.40;8.50;;;;;;;4.92;45.91;96222.72;5021755;28;20071;-67
2023/04/09 05:03:53;;;;;;;13.43;9.07;;;;;;;4.92;45.43;96219.25;5023155;28;20088;-67
2023/04/09 05:06:18;;;;;;;14.90;8.90;;;;;;;4.94;46.03;96219.97;5023425;28;20638;-68
2023/04/09 05:08:44;;;;;;;13.75;8.98;;;;;;;4.90;46.06;96219.34;5023558;28;20083;-67
2023/04/09 05:11:14;;;;;;;13.02;9.10;;;;;;;4.96;45.45;96220.66;5021293;28;20041;-68
2023/04/09 05:13:39;;;;;;;11.52;7.88;;;;;;;4.96;45.68;96223.28;5021663;28;20149;-67
2023/04/09 05:16:05;;;;;;;15.15;9.50;;;;;;;4.96;45.66;96225.94;5021743;28;20056;-67
2023/04/09 05:18:30;;;;;;;17.63;9.23;;;;;;;4.99;45.50;96217.75;5022075;28;20044;-67
2023/04/09 05:20:56;;;;;;;13.60;8.90;;;;;;;5.05;45.68;96224.34;5022975;28;20057;-67
2023/04/09 05:23:21;;;;;;;13.40;9.18;;;;;;;5.09;45.63;96220.50;5022576;28;20354;-67
2023/04/09 05:25:50;;;;;;;15.57;8.48;;;;;;;5.22;45.51;96222.94;5022546;28;20077;-67
2023/04/09 05:28:15;;;;;;;11.80;8.13;;;;;;;5.27;45.44;96223.41;5022895;28;20029;-67
2023/04/09 05:30:45;;;;;;;12.48;8.45;;;;;;;5.30;45.33;96227.56;5019902;28;20045;-67
2023/04/09 05:33:10;;;;;;;13.20;8.73;;;;;;;5.29;44.92;96226.75;5020510;28;20394;-68
2023/04/09 05:35:38;;;;;;;12.40;8.00;;;;;;;5.27;45.09;96226.03;5021803;28;20087;-68
2023/04/09 05:38:03;;;;;;;12.10;7.53;;;;;;;5.26;45.18;96223.53;5021826;28;20076;-67
2023/04/09 05:40:29;;;;;;;11.98;7.82;;;;;;;5.32;45.06;96223.88;5022848;28;20056;-67
2023/04/09 05:42:54;;;;;;;11.57;7.95;;;;;;;5.36;44.56;96221.78;5022347;28;20591;-67
2023/04/09 05:45:19;;;;;;;14.10;8.93;;;;;;;5.45;44.27;96215.72;5021783;28;20476;-67
2023/04/09 05:47:45;;;;;;;12.15;8.18;;;;;;;5.45;44.61;96217.53;5022207;28;20081;-67
2023/04/09 05:50:10;;;;;;;12.38;7.05;;;;;;;5.46;44.84;96221.84;5020357;28;20069;-67
2023/04/09 05:52:36;;;;;;;12.13;7.82;;;;;;;5.46;44.64;96220.03;5021051;28;20408;-67
2023/04/09 05:55:01;;;;;;;12.52;7.88;;;;;;;5.51;44.69;96226.75;5021227;28;20067;-67
2023/04/09 05:57:29;;;;;;;13.43;7.65;;;;;;;5.54;44.66;96226.47;5021937;28;20044;-67
2023/04/09 05:59:54;;;;;;;12.35;8.40;;;;;;;5.61;44.70;96230.25;5022204;28;20580;-67
2023/04/09 06:02:20;;;;;;;13.40;9.10;;;;;;;5.78;44.53;96233.25;5020529;28;20045;-68
2023/04/09 06:04:45;;;;;;;14.18;9.60;;;;;;;5.94;44.38;96230.97;5021187;28;20061;-68
2023/04/09 06:07:11;;;;;;;15.38;9.95;;;;;;;6.01;44.13;96230.44;5020122;28;20041;-67
2023/04/09 06:09:37;;;;;;;16.92;10.32;;;;;;;6.16;44.45;96221.16;5019888;28;20095;-67
2023/04/09 06:12:03;;;;;;;14.52;10.43;;;;;;;6.34;43.56;96223.13;5021787;28;20094;-67
2023/04/09 06:14:28;;;;;;;15.95;10.63;;;;;;;6.52;43.61;96222.50;5020963;28;20453;-68
2023/04/09 06:16:54;;;;;;;13.70;9.35;;;;;;;6.63;43.30;96223.19;5020905;28;20468;-68
2023/04/09 06:19:19;;;;;;;16.60;11.27;;;;;;;6.82;42.83;96229.47;5020842;28;20084;-67
2023/04/09 06:21:45;;;;;;;16.38;10.95;;;;;;;6.99;42.61;96227.94;5019330;28;20045;-68
2023/04/09 06:24:10;;;;;;;16.15;10.38;;;;;;;7.22;42.53;96230.31;5021223;28;20029;-68
2023/04/09 06:26:36;;;;;;;15.02;10.05;;;;;;;7.37;42.07;96227.19;5018495;28;20073;-68
2023/04/09 06:29:02;;;;;;;13.73;9.00;;;;;;;7.44;42.04;96233.59;5021156;28;20033;-67
2023/04/09 06:31:27;;;;;;;17.13;10.60;;;;;;;7.65;41.32;96227.28;5019813;28;20037;-67
2023/04/09 06:33:52;;;;;;;13.95;9.45;;;;;;;7.83;40.78;96229.19;5020547;28;20380;-67
2023/04/09 06:36:18;;;;;;;12.07;8.60;;;;;;;7.44;41.08;96230.94;5021539;28;20049;-67
2023/04/09 06:38:44;;;;;;;15.50;10.40;;;;;;;7.60;40.67;96227.72;5018850;28;20046;-68
2023/04/09 06:41:11;;;;;;;15.15;10.13;;;;;;;7.70;40.77;96240.94;5018719;28;20406;-68
2023/04/09 06:43:37;;;;;;;14.77;9.25;;;;;;;7.86;40.54;96237.69;5019131;28;20025;-67
2023/04/09 06:46:02;;;;;;;15.13;9.82;;;;;;;7.84;40.24;96236.16;5021010;28;20048;-67
2023/04/09 06:48:28;;;;;;;14.02;9.55;;;;;;;7.83;40.29;96239.78;5020872;28;20604;-68
2023/04/09 06:50:53;;;;;;;15.85;10.50;;;;;;;7.97;39.85;96236.69;5020019;28;20087;-68
2023/04/09 06:53:18;;;;;;;15.30;10.70;;;;;;;7.95;40.26;96235.16;5019701;28;20045;-68
2023/04/09 06:55:44;;;;;;;12.32;8.25;;;;;;;7.88;40.37;96243.69;5021051;28;20033;-68
2023/04/09 06:58:10;;;;;;;14.32;9.95;;;;;;;7.95;39.54;96241.28;5021040;28;20353;-67
2023/04/09 07:00:35;;;;;;;15.25;10.25;;;;;;;7.97;39.34;96241.97;5018566;28;20030;-67
2023/04/09 07:03:00;;;;;;;14.30;10.40;;;;;;;7.97;39.17;96239.31;5018278;28;20692;-68
2023/04/09 07:05:26;;;;;;;15.73;10.55;;;;;;;8.19;38.24;96245.22;5020736;28;20029;-68
2023/04/09 07:07:51;;;;;;;14.70;10.25;;;;;;;8.35;38.09;96243.72;5020889;28;20037;-67
2023/04/09 07:10:17;;;;;;;14.48;11.18;;;;;;;7.78;39.38;96237.56;5020442;28;20493;-68
2023/04/09 07:12:42;;;;;;;17.50;11.77;;;;;;;8.24;38.83;96240.31;5020170;28;20421;-68
2023/04/09 07:15:08;;;;;;;15.93;11.60;;;;;;;8.56;38.22;96239.00;5020714;28;20134;-68
2023/04/09 07:17:33;;;;;;;14.07;10.23;;;;;;;8.43;38.41;96244.66;5020396;28;20034;-67
2023/04/09 07:19:59;;;;;;;15.98;10.52;;;;;;;8.63;38.12;96241.03;5020918;28;20036;-68
2023/04/09 07:22:25;;;;;;;15.75;10.63;;;;;;;8.11;38.89;96242.47;5020105;28;20328;-68
2023/04/09 07:24:54;;;;;;;13.27;9.35;;;;;;;8.28;38.70;96244.34;5020909;28;20152;-68
2023/04/09 07:27:20;;;;;;;15.07;10.68;;;;;;;8.24;38.16;96252.72;5020366;28;20052;-68
2023/04/09 07:29:45;;;;;;;13.48;9.18;;;;;;;8.07;37.92;96249.03;5017855;28;20492;-67
2023/04/09 07:32:11;;;;;;;15.88;10.60;;;;;;;8.21;38.41;96258.34;5021013;28;20040;-68
2023/04/09 07:34:36;;;;;;;14.90;10.07;;;;;;;8.44;38.19;96259.59;5019915;28;20617;-68
2023/04/09 07:37:02;;;;;;;15.35;10.70;;;;;;;8.25;37.70;96259.69;5020216;28;20051;-68
2023/04/09 07:39:27;;;;;;;13.35;10.15;;;;;;;8.62;37.58;96266.78;5020052;28;20037;-68
2023/04/09 07:41:52;;;;;;;15.77;11.02;;;;;;;8.81;37.54;96263.13;5020104;28;20405;-68
2023/04/09 07:44:18;;;;;;;15.00;11.05;;;;;;;8.90;37.56;96264.06;5020159;28;20041;-68
2023/04/09 07:46:43;;;;;;;13.57;8.98;;;;;;;8.37;37.80;96273.63;5020146;28;20033;-68
2023/04/09 07:49:09;;;;;;;14.48;10.18;;;;;;;8.73;37.33;96263.06;5019841;28;20478;-67
2023/04/09 07:51:34;;;;;;;13.38;9.60;;;;;;;8.62;37.98;96277.38;5020041;28;20084;-67
2023/04/09 07:53:59;;;;;;;14.98;10.70;;;;;;;8.94;37.42;96270.72;5019758;28;20045;-68
2023/04/09 07:56:25;;;;;;;16.88;11.98;;;;;;;9.25;36.86;96271.38;5020044;28;20029;-67
2023/04/09 07:58:53;;;;;;;14.63;10.82;;;;;;;9.27;37.46;96270.22;5019156;28;20573;-67
2023/04/09 08:01:23;;;;;;;17.48;11.07;;;;;;;9.66;36.35;96273.50;5019400;28;20561;-67
2023/04/09 08:03:49;;;;;;;15.63;10.57;;;;;;;9.64;36.69;96276.31;5019984;28;20064;-68
2023/04/09 08:06:14;;;;;;;15.43;10.30;;;;;;;9.71;36.72;96279.16;5019355;28;20041;-68
2023/04/09 08:08:40;;;;;;;14.00;10.52;;;;;;;9.92;36.09;96278.78;5020298;28;20041;-68
2023/04/09 08:11:06;;;;;;;15.68;10.77;;;;;;;10.32;35.37;96281.00;5018063;28;20048;-68
2023/04/09 08:13:31;;;;;;;14.73;10.57;;;;;;;10.52;35.02;96280.75;5019917;28;20388;-68
2023/04/09 08:16:02;;;;;;;12.85;9.75;;;;;;;10.85;34.95;96275.53;5017198;28;20475;-67
2023/04/09 08:18:28;;;;;;;13.88;10.23;;;;;;;10.73;34.72;96270.50;5019629;28;20310;-67
2023/04/09 08:20:53;;;;;;;13.98;10.55;;;;;;;10.53;34.26;96275.28;5019650;28;20033;-68
2023/04/09 08:23:19;;;;;;;13.23;9.52;;;;;;;11.28;33.01;96275.41;5017843;28;20052;-67
2023/04/09 08:25:44;;;;;;;13.77;9.82;;;;;;;11.22;33.61;96274.25;5019422;28;20041;-68
2023/04/09 08:28:10;;;;;;;14.45;10.25;;;;;;;11.38;33.31;96268.09;5019096;28;20490;-67
2023/04/09 08:30:35;;;;;;;13.13;8.85;;;;;;;11.23;33.55;96270.63;5019261;28;20457;-68
2023/04/09 08:33:01;;;;;;;12.32;8.70;;;;;;;11.23;33.37;96277.75;5018739;28;20030;-68
2023/04/09 08:35:27;;;;;;;13.77;8.38;;;;;;;11.10;33.83;96271.09;5019745;28;20037;-68
2023/04/09 08:37:55;;;;;;;13.18;9.93;;;;;;;11.55;33.35;96273.41;5017754;28;20508;-67
2023/04/09 08:40:20;;;;;;;13.63;9.68;;;;;;;11.75;32.65;96276.56;5018903;28;20490;-68
2023/04/09 08:42:45;;;;;;;12.60;9.05;;;;;;;11.99;32.14;96274.00;5019257;28;20094;-68
2023/04/09 08:45:11;;;;;;;12.85;9.77;;;;;;;11.86;32.16;96278.03;5017596;28;20053;-68
2023/04/09 08:47:37;;;;;;;13.73;9.80;;;;;;;11.45;31.13;96283.41;5019847;28;20034;-68
2023/04/09 08:50:03;;;;;;;13.02;9.02;;;;;;;11.75;31.31;96284.56;5017806;28;20060;-68
2023/04/09 08:52:32;;;;;;;13.48;9.23;;;;;;;11.80;31.59;96284.03;5018378;28;20029;-68
2023/04/09 08:54:57;;;;;;;11.20;8.00;;;;;;;11.75;31.94;96281.91;5019232;28;20037;-68
2023/04/09 08:57:22;;;;;;;11.43;8.40;;;;;;;11.93;32.63;96280.84;5017650;28;20406;-67
2023/04/09 08:59:48;;;;;;;10.50;8.05;;;;;;;12.87;30.17;96281.16;5019831;28;20060;-68
2023/04/09 09:02:13;;;;;;;11.30;7.82;;;;;;;12.11;30.12;96275.31;5017205;28;20049;-68
2023/04/09 09:04:46;;;;;;;11.52;8.60;;;;;;;12.58;29.36;96278.16;5019638;28;20076;-68
2023/04/09 09:07:12;;;;;;;11.63;7.95;;;;;;;12.01;30.09;96278.16;5016739;28;20045;-67
2023/04/09 09:09:51;;;;;;;13.18;8.63;;;;;;;12.62;29.82;96284.00;5019853;28;20066;-68
2023/04/09 09:12:32;;;;;;;12.57;8.70;;;;;;;12.76;29.73;96285.09;5022925;28;20064;-68
2023/04/09 09:14:57;;;;;;;9.57;7.05;;;;;;;12.54;29.38;96280.34;5020950;28;20592;-68
2023/04/09 09:17:23;;;;;;;9.95;7.88;;;;;;;12.65;29.53;96279.13;5022015;28;20125;-68
2023/04/09 09:19:48;;;;;;;8.80;6.93;;;;;;;12.19;30.42;96277.16;5022751;28;20045;-68
2023/04/09 09:22:14;;;;;;;11.02;8.13;;;;;;;12.45;29.75;96283.22;5020854;28;20052;-68
2023/04/09 09:24:50;;;;;;;9.90;7.72;;;;;;;12.60;30.18;96276.16;5021915;28;20033;-68
2023/04/09 09:27:39;;;;;;;10.13;7.53;;;;;;;12.61;29.42;96277.00;5021700;28;20406;-68
2023/04/09 09:30:05;;;;;;;9.75;7.10;;;;;;;12.88;29.09;96277.47;5021608;28;20065;-68
2023/04/09 09:32:33;;;;;;;8.93;6.85;;;;;;;12.64;29.26;96282.81;5021611;28;20387;-68
2023/04/09 09:35:00;;;;;;;;;;;;;;;12.89;29.57;96271.97;5020223;28;20068;-68
2023/04/09 09:37:26;;;;;;;10.40;6.88;;;;;;;12.73;29.08;96267.56;5020409;28;19917;-68
2023/04/09 09:39:52;;;;;;;10.90;7.30;;;;;;;13.26;28.26;96268.75;5020107;28;20033;-68
2023/04/09 09:42:18;;;;;;;8.10;6.05;;;;;;;13.23;29.05;96267.28;5021223;28;20037;-68
2023/04/09 09:44:43;;;;;;;9.50;6.93;;;;;;;13.60;28.16;96270.13;5018844;28;20033;-67
2023/04/09 09:47:09;;;;;;;7.88;6.25;;;;;;;13.33;25.46;96280.41;5021767;28;20049;-67
2023/04/09 09:49:35;;;;;;;7.35;5.40;;;;;;;12.99;25.72;96274.44;5018832;28;20037;-68
2023/04/09 09:52:01;;;;;;;6.95;5.35;;;;;;;12.93;26.65;96275.13;5021662;28;20036;-68
2023/04/09 09:54:27;;;;;;;8.15;4.88;;;;;;;12.74;25.96;96273.72;5018495;28;20117;-67
2023/04/09 09:56:52;;;;;;;7.53;4.93;;;;;;;12.66;26.64;96269.28;5020274;28;20091;-68
2023/04/09 09:59:22;;;;;;;6.65;4.70;;;;;;;12.96;25.43;96276.63;5003297;28;20033;-67
2023/04/09 10:01:48;;;;;;;5.63;4.70;;;;;;;13.26;25.34;96269.56;5019313;28;20060;-68
2023/04/09 10:04:13;;;;;;;6.53;4.68;;;;;;;13.50;25.00;96266.88;5020219;28;20068;-67
2023/04/09 10:06:42;;;;;;;6.30;4.88;;;;;;;13.75;24.58;96272.00;5020192;28;20045;-68
2023/04/09 10:09:08;;;;;;;6.13;4.65;;;;;;;13.82;24.45;96268.41;5018373;28;20048;-68
2023/04/09 10:11:35;;;;;;;6.30;4.80;;;;;;;14.03;24.95;96263.38;5018354;28;20478;-68
2023/04/09 10:14:00;;;;;;;7.32;4.78;;;;;;;14.17;25.15;96267.06;5016892;28;20049;-68
2023/04/09 10:16:28;;;;;;;7.53;4.90;;;;;;;14.29;24.91;96265.59;5002274;28;20029;-67
2023/04/09 10:18:57;;;;;;;8.00;5.00;;;;;;;14.39;25.42;96261.78;5019822;28;20540;-68
2023/04/09 10:21:55;;;;;;;6.85;5.18;;;;;;;14.31;24.65;96260.06;5020015;28;20505;-67
2023/04/09 10:24:20;;;;;;;7.50;5.45;;;;;;;14.59;24.42;96270.09;5021862;28;20029;-68
2023/04/09 10:26:46;;;;;;;9.07;5.65;;;;;;;14.83;24.06;96258.22;5019318;28;20413;-68
2023/04/09 10:29:13;;;;;;;7.35;5.15;;;;;;;14.58;24.56;96255.00;5021735;28;20021;-68
2023/04/09 10:32:05;;;;;;;7.57;5.50;;;;;;;15.44;24.24;96248.06;5020074;28;20028;-68
2023/04/09 10:34:34;;;;;;;7.85;5.40;;;;;;;15.82;23.31;96244.25;5021264;28;20243;-68
2023/04/09 10:36:59;;;;;;;6.35;4.95;;;;;;;15.65;23.52;96240.19;5021992;28;20083;-68
2023/04/09 10:39:26;;;;;;;6.78;5.20;;;;;;;15.61;23.10;96243.25;5021372;28;20516;-68
2023/04/09 10:41:51;;;;;;;8.02;5.22;;;;;;;15.84;22.60;96236.00;5021319;28;20063;-68
2023/04/09 10:44:20;;;;;;;6.65;4.60;;;;;;;15.41;22.83;96247.63;5021034;28;20025;-68
2023/04/09 10:46:46;;;;;;;6.70;4.80;;;;;;;15.23;22.66;96247.06;5021136;28;20120;-68
2023/04/09 10:49:18;;;;;;;5.57;4.50;;;;;;;15.71;22.97;96240.25;5017183;28;20029;-68
2023/04/09 10:51:49;;;;;;;5.45;4.35;;;;;;;15.73;24.22;96243.56;5002938;28;20025;-67
2023/04/09 10:54:38;;;;;;;5.65;4.53;;;;;;;15.91;23.30;96244.91;5019612;28;20144;-68
2023/04/09 10:57:06;;;;;;;8.77;5.15;;;;;;;15.64;23.42;96238.53;5015274;28;20489;-68
2023/04/09 10:59:47;;;;;;;7.13;5.43;;;;;;;15.15;23.69;96244.50;5021071;28;20474;-67
2023/04/09 11:02:37;;;;;;;7.05;5.32;;;;;;;14.91;24.24;96248.38;5018401;28;20604;-68
2023/04/09 11:05:23;;;;;;;6.25;4.68;;;;;;;14.92;25.27;96242.84;5020979;28;20057;-67
2023/04/09 11:07:55;;;;;;;5.90;4.68;;;;;;;14.74;23.99;96247.78;5021001;28;20124;-68
2023/04/09 11:10:21;;;;;;;6.03;4.90;;;;;;;14.92;25.29;96250.88;5018906;28;20041;-67
2023/04/09 11:12:47;;;;;;;7.80;5.10;;;;;;;14.96;23.41;96254.03;5019909;28;20091;-67
2023/04/09 11:15:17;;;;;;;6.10;4.72;;;;;;;15.09;23.93;96250.63;5018364;28;20049;-68
2023/04/09 11:17:42;;;;;;;7.80;5.88;;;;;;;15.17;23.82;96245.16;5020019;28;20037;-68
2023/04/09 11:20:09;;;;;;;7.10;5.47;;;;;;;15.39;23.50;96249.66;5020390;28;20044;-66
2023/04/09 11:22:35;;;;;;;7.43;5.68;;;;;;;15.31;23.65;96248.78;5019260;28;20422;-66
2023/04/09 11:25:00;;;;;;;6.60;4.90;;;;;;;14.97;24.88;96250.31;5018904;28;20399;-66
2023/04/09 11:27:25;;;;;;;6.72;5.13;;;;;;;14.82;24.14;96250.38;5018241;28;20041;-66
2023/04/09 11:29:54;;;;;;;7.68;5.50;;;;;;;14.79;23.71;96240.03;5019057;28;20045;-66
2023/04/09 11:32:20;;;;;;;6.53;5.18;;;;;;;15.27;24.00;96241.31;5020043;28;20406;-66